sensor_id;sensor_type;location;lat;lon;timestamp;pressure;altitude;pressure_sealevel;temperature;humidity
74722;BME280;63470;49.826;6.740;2023-05-07T00:00:28;100142.75;;;12.57;55.58
74722;BME280;63470;49.826;6.740;2023-05-07T00:02:57;100145.22;;;12.52;55.58
74722;BME280;63470;49.826;6.740;2023-05-07T00:05:28;100142.23;;;12.45;55.63
74722;BME280;63470;49.826;6.740;2023-05-07T00:07:58;100139.25;;;12.39;55.61
74722;BME280;63470;49.826;6.740;2023-05-07T00:10:28;100145.44;;;12.33;55.63
74722;BME280;63470;49.826;6.740;2023-05-07T00:12:59;100152.00;;;12.25;55.75
74722;BME280;63470;49.826;6.740;2023-05-07T00:15:30;100147.52;;;12.18;55.88
74722;BME280;63470;49.826;6.740;2023-05-07T00:18:00;100155.52;;;12.12;55.93
74722;BME280;63470;49.826;6.740;2023-05-07T00:20:30;100154.38;;;12.05;56.02
74722;BME280;63470;49.826;6.740;2023-05-07T00:23:01;100156.58;;;11.99;56.10
74722;BME280;63470;49.826;6.740;2023-05-07T00:25:31;100149.97;;;11.99;55.96
74722;BME280;63470;49.826;6.740;2023-05-07T00:28:04;100144.03;;;11.94;55.99
74722;BME280;63470;49.826;6.740;2023-05-07T00:30:32;100137.88;;;11.92;55.93
74722;BME280;63470;49.826;6.740;2023-05-07T00:33:05;100140.48;;;11.94;55.82
74722;BME280;63470;49.826;6.740;2023-05-07T00:35:34;100141.52;;;11.92;55.81
74722;BME280;63470;49.826;6.740;2023-05-07T00:38:08;100137.06;;;11.88;55.85
74722;BME280;63470;49.826;6.740;2023-05-07T00:40:35;100133.42;;;11.85;55.90
74722;BME280;63470;49.826;6.740;2023-05-07T00:43:08;100130.70;;;11.81;55.93
74722;BME280;63470;49.826;6.740;2023-05-07T00:45:36;100131.34;;;11.75;56.02
74722;BME280;63470;49.826;6.740;2023-05-07T00:48:06;100131.81;;;11.68;56.08
74722;BME280;63470;49.826;6.740;2023-05-07T00:50:37;100123.73;;;11.59;56.14
74722;BME280;63470;49.826;6.740;2023-05-07T00:53:08;100124.41;;;11.51;56.19
74722;BME280;63470;49.826;6.740;2023-05-07T00:55:38;100125.65;;;11.46;56.19
74722;BME280;63470;49.826;6.740;2023-05-07T00:58:08;100125.53;;;11.40;56.18
74722;BME280;63470;49.826;6.740;2023-05-07T01:00:41;100131.64;;;11.36;56.24
74722;BME280;63470;49.826;6.740;2023-05-07T01:03:10;100131.11;;;11.34;56.27
74722;BME280;63470;49.826;6.740;2023-05-07T01:05:45;100132.27;;;11.34;56.25
74722;BME280;63470;49.826;6.740;2023-05-07T01:08:15;100132.89;;;11.36;56.19
74722;BME280;63470;49.826;6.740;2023-05-07T01:10:48;100127.47;;;11.38;56.10
74722;BME280;63470;49.826;6.740;2023-05-07T01:13:17;100127.10;;;11.39;56.11
74722;BME280;63470;49.826;6.740;2023-05-07T01:15:43;100128.34;;;11.40;56.10
74722;BME280;63470;49.826;6.740;2023-05-07T01:18:13;100132.02;;;11.39;56.09
74722;BME280;63470;49.826;6.740;2023-05-07T01:20:43;100130.41;;;11.35;56.11
74722;BME280;63470;49.826;6.740;2023-05-07T01:23:16;100127.27;;;11.32;56.18
74722;BME280;63470;49.826;6.740;2023-05-07T01:25:52;100125.20;;;11.32;56.08
74722;BME280;63470;49.826;6.740;2023-05-07T01:28:17;100126.03;;;11.28;56.01
74722;BME280;63470;49.826;6.740;2023-05-07T01:30:52;100122.23;;;11.24;56.08
74722;BME280;63470;49.826;6.740;2023-05-07T01:33:21;100125.70;;;11.20;56.21
74722;BME280;63470;49.826;6.740;2023-05-07T01:35:49;100124.46;;;11.20;56.25
74722;BME280;63470;49.826;6.740;2023-05-07T01:38:16;100121.48;;;11.20;56.23
74722;BME280;63470;49.826;6.740;2023-05-07T01:40:47;100122.28;;;11.21;56.17
74722;BME280;63470;49.826;6.740;2023-05-07T01:43:19;100126.52;;;11.20;56.18
74722;BME280;63470;49.826;6.740;2023-05-07T01:45:49;100126.11;;;11.20;56.14
74722;BME280;63470;49.826;6.740;2023-05-07T01:48:19;100125.58;;;11.17;56.16
74722;BME280;63470;49.826;6.740;2023-05-07T01:50:50;100121.36;;;11.14;56.25
74722;BME280;63470;49.826;6.740;2023-05-07T01:53:21;100123.42;;;11.11;56.26
74722;BME280;63470;49.826;6.740;2023-05-07T01:55:51;100123.67;;;11.06;56.32
74722;BME280;63470;49.826;6.740;2023-05-07T01:58:22;100122.02;;;11.02;56.41
74722;BME280;63470;49.826;6.740;2023-05-07T02:00:55;100125.73;;;11.01;56.41
74722;BME280;63470;49.826;6.740;2023-05-07T02:03:23;100128.45;;;10.97;56.38
74722;BME280;63470;49.826;6.740;2023-05-07T02:05:56;100126.55;;;10.89;56.43
74722;BME280;63470;49.826;6.740;2023-05-07T02:08:24;100125.95;;;10.82;56.49
74722;BME280;63470;49.826;6.740;2023-05-07T02:10:55;100129.30;;;10.79;56.54
74722;BME280;63470;49.826;6.740;2023-05-07T02:13:29;100129.08;;;10.77;56.44
74722;BME280;63470;49.826;6.740;2023-05-07T02:15:58;100130.48;;;10.73;56.42
74722;BME280;63470;49.826;6.740;2023-05-07T02:18:32;100132.12;;;10.69;56.45
74722;BME280;63470;49.826;6.740;2023-05-07T02:20:57;100132.73;;;10.67;56.43
74722;BME280;63470;49.826;6.740;2023-05-07T02:23:30;100132.31;;;10.64;56.45
74722;BME280;63470;49.826;6.740;2023-05-07T02:25:58;100133.67;;;10.61;56.50
74722;BME280;63470;49.826;6.740;2023-05-07T02:28:29;100130.74;;;10.63;56.45
74722;BME280;63470;49.826;6.740;2023-05-07T02:31:04;100131.95;;;10.66;56.32
74722;BME280;63470;49.826;6.740;2023-05-07T02:33:31;100134.08;;;10.62;56.36
74722;BME280;63470;49.826;6.740;2023-05-07T02:36:08;100133.73;;;10.57;56.48
74722;BME280;63470;49.826;6.740;2023-05-07T02:38:31;100135.02;;;10.55;56.54
74722;BME280;63470;49.826;6.740;2023-05-07T02:41:02;100135.38;;;10.53;56.56
74722;BME280;63470;49.826;6.740;2023-05-07T02:43:32;100136.44;;;10.50;56.57
74722;BME280;63470;49.826;6.740;2023-05-07T02:46:07;100133.75;;;10.47;56.64
74722;BME280;63470;49.826;6.740;2023-05-07T02:48:36;100132.13;;;10.45;56.58
74722;BME280;63470;49.826;6.740;2023-05-07T02:51:06;100135.91;;;10.41;56.61
74722;BME280;63470;49.826;6.740;2023-05-07T02:53:40;100137.66;;;10.35;56.70
74722;BME280;63470;49.826;6.740;2023-05-07T02:56:07;100139.13;;;10.31;56.77
74722;BME280;63470;49.826;6.740;2023-05-07T02:58:38;100137.30;;;10.26;56.85
74722;BME280;63470;49.826;6.740;2023-05-07T03:01:12;100139.33;;;10.28;56.75
74722;BME280;63470;49.826;6.740;2023-05-07T03:03:42;100133.06;;;10.28;56.62
74722;BME280;63470;49.826;6.740;2023-05-07T03:06:08;100131.44;;;10.23;56.63
74722;BME280;63470;49.826;6.740;2023-05-07T03:08:43;100129.22;;;10.17;56.76
74722;BME280;63470;49.826;6.740;2023-05-07T03:11:12;100128.97;;;10.16;56.77
74722;BME280;63470;49.826;6.740;2023-05-07T03:13:40;100131.89;;;10.16;56.78
74722;BME280;63470;49.826;6.740;2023-05-07T03:16:15;100130.11;;;10.13;56.81
74722;BME280;63470;49.826;6.740;2023-05-07T03:18:40;100131.38;;;10.10;56.81
74722;BME280;63470;49.826;6.740;2023-05-07T03:21:13;100128.36;;;10.06;56.91
74722;BME280;63470;49.826;6.740;2023-05-07T03:23:42;100132.34;;;10.05;56.91
74722;BME280;63470;49.826;6.740;2023-05-07T03:26:17;100130.95;;;10.05;56.91
74722;BME280;63470;49.826;6.740;2023-05-07T03:28:43;100130.62;;;10.05;56.85
74722;BME280;63470;49.826;6.740;2023-05-07T03:31:16;100129.92;;;10.06;56.80
74722;BME280;63470;49.826;6.740;2023-05-07T03:33:57;100126.25;;;10.05;56.83
74722;BME280;63470;49.826;6.740;2023-05-07T03:36:14;100122.55;;;10.10;56.76
74722;BME280;63470;49.826;6.740;2023-05-07T03:38:47;100124.52;;;10.17;56.64
74722;BME280;63470;49.826;6.740;2023-05-07T03:41:14;100120.92;;;10.25;56.55
74722;BME280;63470;49.826;6.740;2023-05-07T03:43:47;100124.92;;;10.33;56.50
74722;BME280;63470;49.826;6.740;2023-05-07T03:46:16;100128.08;;;10.42;56.42
74722;BME280;63470;49.826;6.740;2023-05-07T03:48:46;100126.62;;;10.50;56.34
74722;BME280;63470;49.826;6.740;2023-05-07T03:51:17;100123.62;;;10.55;56.35
74722;BME280;63470;49.826;6.740;2023-05-07T03:53:47;100126.61;;;10.60;56.34
74722;BME280;63470;49.826;6.740;2023-05-07T03:56:18;100128.02;;;10.63;56.34
74722;BME280;63470;49.826;6.740;2023-05-07T03:58:48;100126.70;;;10.63;56.38
74722;BME280;63470;49.826;6.740;2023-05-07T04:01:19;100128.02;;;10.63;56.42
74722;BME280;63470;49.826;6.740;2023-05-07T04:03:49;100123.34;;;10.58;56.51
74722;BME280;63470;49.826;6.740;2023-05-07T04:06:20;100122.84;;;10.52;56.58
74722;BME280;63470;49.826;6.740;2023-05-07T04:08:52;100123.60;;;10.47;56.65
74722;BME280;63470;49.826;6.740;2023-05-07T04:11:21;100125.16;;;10.43;56.66
74722;BME280;63470;49.826;6.740;2023-05-07T04:13:52;100128.97;;;10.37;56.75
74722;BME280;63470;49.826;6.740;2023-05-07T04:16:22;100126.73;;;10.34;56.78
74722;BME280;63470;49.826;6.740;2023-05-07T04:18:52;100130.82;;;10.36;56.69
74722;BME280;63470;49.826;6.740;2023-05-07T04:21:23;100126.20;;;10.35;56.70
74722;BME280;63470;49.826;6.740;2023-05-07T04:23:53;100125.50;;;10.37;56.68
74722;BME280;63470;49.826;6.740;2023-05-07T04:26:29;100125.39;;;10.39;56.62
74722;BME280;63470;49.826;6.740;2023-05-07T04:28:57;100128.78;;;10.42;56.59
74722;BME280;63470;49.826;6.740;2023-05-07T04:31:24;100127.16;;;10.50;56.51
74722;BME280;63470;49.826;6.740;2023-05-07T04:33:55;100133.83;;;10.62;56.36
74722;BME280;63470;49.826;6.740;2023-05-07T04:36:30;100133.03;;;10.74;56.27
74722;BME280;63470;49.826;6.740;2023-05-07T04:38:55;100135.91;;;10.87;56.14
74722;BME280;63470;49.826;6.740;2023-05-07T04:41:26;100130.89;;;10.99;56.07
74722;BME280;63470;49.826;6.740;2023-05-07T04:44:01;100131.27;;;11.10;55.99
74722;BME280;63470;49.826;6.740;2023-05-07T04:46:27;100127.06;;;11.15;55.91
74722;BME280;63470;49.826;6.740;2023-05-07T04:48:57;100129.62;;;11.19;55.95
74722;BME280;63470;49.826;6.740;2023-05-07T04:51:31;100126.90;;;11.21;55.99
74722;BME280;63470;49.826;6.740;2023-05-07T04:54:03;100128.92;;;11.27;56.02
74722;BME280;63470;49.826;6.740;2023-05-07T04:56:29;100124.83;;;11.34;56.01
74722;BME280;63470;49.826;6.740;2023-05-07T04:58:59;100120.11;;;11.43;55.98
74722;BME280;63470;49.826;6.740;2023-05-07T05:01:31;100122.55;;;11.53;55.96
74722;BME280;63470;49.826;6.740;2023-05-07T05:04:01;100124.61;;;11.69;55.79
74722;BME280;63470;49.826;6.740;2023-05-07T05:06:33;100125.23;;;11.89;55.58
74722;BME280;63470;49.826;6.740;2023-05-07T05:09:00;100125.05;;;12.10;55.41
74722;BME280;63470;49.826;6.740;2023-05-07T05:11:31;100122.92;;;12.33;55.25
74722;BME280;63470;49.826;6.740;2023-05-07T05:14:02;100127.10;;;12.51;55.12
74722;BME280;63470;49.826;6.740;2023-05-07T05:16:34;100127.23;;;12.64;55.05
74722;BME280;63470;49.826;6.740;2023-05-07T05:19:02;100127.65;;;12.78;55.00
74722;BME280;63470;49.826;6.740;2023-05-07T05:21:33;100128.30;;;12.87;54.96
74722;BME280;63470;49.826;6.740;2023-05-07T05:24:06;100135.80;;;12.97;54.93
74722;BME280;63470;49.826;6.740;2023-05-07T05:26:34;100136.11;;;13.06;54.92
74722;BME280;63470;49.826;6.740;2023-05-07T05:29:04;100139.69;;;13.14;54.87
74722;BME280;63470;49.826;6.740;2023-05-07T05:31:35;100143.91;;;13.35;54.70
74722;BME280;63470;49.826;6.740;2023-05-07T05:34:08;100138.05;;;13.70;54.65
74722;BME280;63470;49.826;6.740;2023-05-07T05:36:36;100134.83;;;14.04;54.57
74722;BME280;63470;49.826;6.740;2023-05-07T05:39:06;100129.31;;;14.34;54.44
74722;BME280;63470;49.826;6.740;2023-05-07T05:41:37;100129.78;;;14.65;54.56
74722;BME280;63470;49.826;6.740;2023-05-07T05:44:07;100129.50;;;15.03;54.47
74722;BME280;63470;49.826;6.740;2023-05-07T05:46:38;100127.55;;;15.46;54.37
74722;BME280;63470;49.826;6.740;2023-05-07T05:49:09;100123.00;;;15.86;54.22
74722;BME280;63470;49.826;6.740;2023-05-07T05:51:38;100127.33;;;16.10;54.13
74722;BME280;63470;49.826;6.740;2023-05-07T05:54:09;100125.51;;;16.23;54.14
74722;BME280;63470;49.826;6.740;2023-05-07T05:56:40;100124.25;;;16.32;54.25
74722;BME280;63470;49.826;6.740;2023-05-07T05:59:10;100124.29;;;16.51;54.30
74722;BME280;63470;49.826;6.740;2023-05-07T06:01:40;100124.43;;;16.70;54.28
74722;BME280;63470;49.826;6.740;2023-05-07T06:04:11;100127.08;;;17.12;53.77
74722;BME280;63470;49.826;6.740;2023-05-07T06:06:41;100130.03;;;17.43;53.56
74722;BME280;63470;49.826;6.740;2023-05-07T06:09:12;100134.16;;;17.60;53.59
74722;BME280;63470;49.826;6.740;2023-05-07T06:11:42;100136.84;;;17.29;54.05
74722;BME280;63470;49.826;6.740;2023-05-07T06:14:15;100140.84;;;17.04;54.50
74722;BME280;63470;49.826;6.740;2023-05-07T06:16:44;100137.39;;;16.92;54.69
74722;BME280;63470;49.826;6.740;2023-05-07T06:19:14;100133.33;;;16.82;54.94
74722;BME280;63470;49.826;6.740;2023-05-07T06:21:45;100140.08;;;16.79;54.85
74722;BME280;63470;49.826;6.740;2023-05-07T06:24:15;100141.20;;;16.75;54.85
74722;BME280;63470;49.826;6.740;2023-05-07T06:26:46;100146.58;;;16.72;54.97
74722;BME280;63470;49.826;6.740;2023-05-07T06:29:16;100147.35;;;16.71;54.93
74722;BME280;63470;49.826;6.740;2023-05-07T06:31:47;100153.59;;;16.68;54.85
74722;BME280;63470;49.826;6.740;2023-05-07T06:34:17;100150.44;;;16.75;54.88
74722;BME280;63470;49.826;6.740;2023-05-07T06:36:48;100157.41;;;16.93;54.65
74722;BME280;63470;49.826;6.740;2023-05-07T06:39:20;100158.13;;;17.07;54.49
74722;BME280;63470;49.826;6.740;2023-05-07T06:41:49;100160.25;;;17.18;54.40
74722;BME280;63470;49.826;6.740;2023-05-07T06:44:20;100164.84;;;17.38;54.21
74722;BME280;63470;49.826;6.740;2023-05-07T06:46:50;100165.25;;;17.61;53.98
74722;BME280;63470;49.826;6.740;2023-05-07T06:49:25;100166.77;;;17.77;53.85
74722;BME280;63470;49.826;6.740;2023-05-07T06:51:51;100159.77;;;17.82;53.77
74722;BME280;63470;49.826;6.740;2023-05-07T06:54:22;100160.61;;;17.89;53.76
74722;BME280;63470;49.826;6.740;2023-05-07T06:56:52;100156.56;;;17.95;53.70
74722;BME280;63470;49.826;6.740;2023-05-07T06:59:23;100155.30;;;18.00;53.66
74722;BME280;63470;49.826;6.740;2023-05-07T07:01:54;100158.52;;;18.04;53.60
74722;BME280;63470;49.826;6.740;2023-05-07T07:04:26;100152.23;;;18.19;53.56
74722;BME280;63470;49.826;6.740;2023-05-07T07:06:56;100152.70;;;18.32;53.44
74722;BME280;63470;49.826;6.740;2023-05-07T07:09:25;100154.66;;;18.43;53.34
74722;BME280;63470;49.826;6.740;2023-05-07T07:11:56;100148.14;;;18.53;53.26
74722;BME280;63470;49.826;6.740;2023-05-07T07:14:27;100140.08;;;18.57;53.31
74722;BME280;63470;49.826;6.740;2023-05-07T07:16:57;100139.02;;;18.72;53.26
74722;BME280;63470;49.826;6.740;2023-05-07T07:19:27;100137.53;;;18.88;53.18
74722;BME280;63470;49.826;6.740;2023-05-07T07:21:58;100142.83;;;19.00;53.13
74722;BME280;63470;49.826;6.740;2023-05-07T07:24:28;100143.02;;;19.07;53.22
74722;BME280;63470;49.826;6.740;2023-05-07T07:26:59;100145.34;;;19.23;53.12
74722;BME280;63470;49.826;6.740;2023-05-07T07:29:29;100154.38;;;19.46;52.92
74722;BME280;63470;49.826;6.740;2023-05-07T07:32:00;100147.95;;;19.93;52.46
74722;BME280;63470;49.826;6.740;2023-05-07T07:34:30;100147.68;;;20.49;51.94
74722;BME280;63470;49.826;6.740;2023-05-07T07:37:06;100146.16;;;21.02;51.59
74722;BME280;63470;49.826;6.740;2023-05-07T07:39:33;100147.34;;;21.03;51.63
74722;BME280;63470;49.826;6.740;2023-05-07T07:42:02;100144.50;;;20.82;52.12
74722;BME280;63470;49.826;6.740;2023-05-07T07:44:33;100143.55;;;20.68;52.42
74722;BME280;63470;49.826;6.740;2023-05-07T07:47:03;100135.86;;;20.54;52.68
74722;BME280;63470;49.826;6.740;2023-05-07T07:49:34;100135.62;;;20.38;53.03
74722;BME280;63470;49.826;6.740;2023-05-07T07:52:04;100133.36;;;20.34;53.12
74722;BME280;63470;49.826;6.740;2023-05-07T07:54:35;100129.31;;;20.36;53.24
74722;BME280;63470;49.826;6.740;2023-05-07T07:57:05;100138.77;;;20.52;53.04
74722;BME280;63470;49.826;6.740;2023-05-07T07:59:36;100138.46;;;20.59;52.99
74722;BME280;63470;49.826;6.740;2023-05-07T08:02:06;100138.68;;;20.79;52.83
74722;BME280;63470;49.826;6.740;2023-05-07T08:04:38;100137.20;;;21.06;52.56
74722;BME280;63470;49.826;6.740;2023-05-07T08:07:07;100136.02;;;21.35;52.18
74722;BME280;63470;49.826;6.740;2023-05-07T08:09:38;100137.78;;;21.60;52.03
74722;BME280;63470;49.826;6.740;2023-05-07T08:12:09;100130.09;;;22.10;51.68
74722;BME280;63470;49.826;6.740;2023-05-07T08:14:39;100130.88;;;22.46;51.42
74722;BME280;63470;49.826;6.740;2023-05-07T08:17:10;100131.06;;;22.53;51.60
74722;BME280;63470;49.826;6.740;2023-05-07T08:19:43;100132.09;;;22.54;51.75
74722;BME280;63470;49.826;6.740;2023-05-07T08:22:11;100133.77;;;22.36;52.10
74722;BME280;63470;49.826;6.740;2023-05-07T08:24:41;100134.98;;;22.21;52.45
74722;BME280;63470;49.826;6.740;2023-05-07T08:27:12;100130.83;;;22.29;52.34
74722;BME280;63470;49.826;6.740;2023-05-07T08:29:43;100130.97;;;22.26;52.40
74722;BME280;63470;49.826;6.740;2023-05-07T08:32:13;100130.02;;;22.17;52.52
74722;BME280;63470;49.826;6.740;2023-05-07T08:34:43;100132.33;;;22.04;52.82
74722;BME280;63470;49.826;6.740;2023-05-07T08:37:14;100137.80;;;22.01;52.81
74722;BME280;63470;49.826;6.740;2023-05-07T08:39:44;100136.41;;;22.06;52.68
74722;BME280;63470;49.826;6.740;2023-05-07T08:42:16;100139.57;;;22.21;52.57
74722;BME280;63470;49.826;6.740;2023-05-07T08:44:48;100138.75;;;22.44;52.31
74722;BME280;63470;49.826;6.740;2023-05-07T08:47:16;100137.80;;;22.66;52.16
74722;BME280;63470;49.826;6.740;2023-05-07T08:49:46;100136.35;;;22.77;52.18
74722;BME280;63470;49.826;6.740;2023-05-07T08:52:17;100129.73;;;22.91;52.10
74722;BME280;63470;49.826;6.740;2023-05-07T08:54:48;100125.64;;;23.14;51.83
74722;BME280;63470;49.826;6.740;2023-05-07T08:57:18;100123.66;;;23.35;51.71
74722;BME280;63470;49.826;6.740;2023-05-07T08:59:49;100128.86;;;23.52;51.57
74722;BME280;63470;49.826;6.740;2023-05-07T09:02:20;100131.12;;;23.62;51.66
74722;BME280;63470;49.826;6.740;2023-05-07T09:44:52;100093.46;;;27.89;49.68
74722;BME280;63470;49.826;6.740;2023-05-07T09:47:24;100098.85;;;27.84;49.52
74722;BME280;63470;49.826;6.740;2023-05-07T09:49:56;100102.84;;;27.69;49.65
74722;BME280;63470;49.826;6.740;2023-05-07T09:52:25;100104.52;;;27.48;49.85
74722;BME280;63470;49.826;6.740;2023-05-07T09:54:57;100105.25;;;27.27;50.11
74722;BME280;63470;49.826;6.740;2023-05-07T09:59:57;100104.81;;;27.07;50.62
74722;BME280;63470;49.826;6.740;2023-05-07T10:02:28;100108.17;;;26.93;50.68
74722;BME280;63470;49.826;6.740;2023-05-07T10:04:57;100103.66;;;26.82;50.56
74722;BME280;63470;49.826;6.740;2023-05-07T10:07:27;100103.73;;;26.89;50.62
74722;BME280;63470;49.826;6.740;2023-05-07T10:09:59;100107.36;;;27.23;50.21
74722;BME280;63470;49.826;6.740;2023-05-07T10:12:28;100104.34;;;27.56;49.84
74722;BME280;63470;49.826;6.740;2023-05-07T10:14:58;100102.16;;;28.02;49.40
74722;BME280;63470;49.826;6.740;2023-05-07T10:17:29;100100.47;;;28.36;49.11
74722;BME280;63470;49.826;6.740;2023-05-07T10:19:59;100106.32;;;28.31;49.37
74722;BME280;63470;49.826;6.740;2023-05-07T10:22:33;100102.05;;;28.42;49.44
74722;BME280;63470;49.826;6.740;2023-05-07T10:25:02;100101.84;;;28.65;49.40
74722;BME280;63470;49.826;6.740;2023-05-07T10:27:30;100101.51;;;29.00;49.16
74722;BME280;63470;49.826;6.740;2023-05-07T10:30:26;100099.22;;;29.24;49.08
74722;BME280;63470;49.826;6.740;2023-05-07T10:32:42;100091.48;;;29.52;48.96
74722;BME280;63470;49.826;6.740;2023-05-07T10:35:04;100088.47;;;29.66;48.96
74722;BME280;63470;49.826;6.740;2023-05-07T10:37:33;100090.33;;;29.17;49.80
74722;BME280;63470;49.826;6.740;2023-05-07T10:40:03;100083.69;;;28.34;51.02
74722;BME280;63470;49.826;6.740;2023-05-07T10:42:33;100087.62;;;27.68;51.92
74722;BME280;63470;49.826;6.740;2023-05-07T10:45:13;100087.00;;;27.20;52.21
74722;BME280;63470;49.826;6.740;2023-05-07T10:47:35;100088.30;;;26.86;52.35
74722;BME280;63470;49.826;6.740;2023-05-07T10:52:36;100083.85;;;26.53;52.37
74722;BME280;63470;49.826;6.740;2023-05-07T10:55:20;100086.70;;;26.55;52.18
74722;BME280;63470;49.826;6.740;2023-05-07T10:57:37;100088.66;;;26.52;51.90
74722;BME280;63470;49.826;6.740;2023-05-07T11:05:23;100085.38;;;26.87;51.18
74722;BME280;63470;49.826;6.740;2023-05-07T11:07:39;100082.41;;;27.06;50.92
74722;BME280;63470;49.826;6.740;2023-05-07T11:10:09;100081.96;;;26.98;51.04
74722;BME280;63470;49.826;6.740;2023-05-07T11:12:46;100080.84;;;26.89;51.20
74722;BME280;63470;49.826;6.740;2023-05-07T11:15:11;100081.23;;;26.63;51.29
74722;BME280;63470;49.826;6.740;2023-05-07T11:17:58;100083.36;;;26.26;51.70
74722;BME280;63470;49.826;6.740;2023-05-07T11:20:11;100088.70;;;26.02;51.88
74722;BME280;63470;49.826;6.740;2023-05-07T11:22:41;100093.33;;;25.78;52.10
74722;BME280;63470;49.826;6.740;2023-05-07T11:25:17;100088.62;;;25.75;52.07
74722;BME280;63470;49.826;6.740;2023-05-07T11:27:42;100083.97;;;25.68;52.01
74722;BME280;63470;49.826;6.740;2023-05-07T11:30:18;100081.66;;;25.61;52.12
74722;BME280;63470;49.826;6.740;2023-05-07T11:32:48;100081.59;;;25.79;51.89
74722;BME280;63470;49.826;6.740;2023-05-07T11:35:15;100078.34;;;26.16;51.35
74722;BME280;63470;49.826;6.740;2023-05-07T11:37:45;100080.34;;;26.42;50.91
74722;BME280;63470;49.826;6.740;2023-05-07T11:40:15;100076.64;;;26.58;50.73
74722;BME280;63470;49.826;6.740;2023-05-07T11:42:45;100076.75;;;26.85;50.49
74722;BME280;63470;49.826;6.740;2023-05-07T11:45:24;100074.45;;;27.13;50.21
74722;BME280;63470;49.826;6.740;2023-05-07T11:47:46;100074.58;;;27.09;50.37
74722;BME280;63470;49.826;6.740;2023-05-07T11:50:17;100072.17;;;26.86;50.66
74722;BME280;63470;49.826;6.740;2023-05-07T11:52:51;100073.93;;;26.56;51.06
74722;BME280;63470;49.826;6.740;2023-05-07T11:55:18;100075.94;;;26.41;51.21
74722;BME280;63470;49.826;6.740;2023-05-07T11:57:48;100074.02;;;26.41;51.10
74722;BME280;63470;49.826;6.740;2023-05-07T12:00:18;100074.97;;;26.34;51.13
74722;BME280;63470;49.826;6.740;2023-05-07T12:02:49;100074.12;;;26.22;51.15
74722;BME280;63470;49.826;6.740;2023-05-07T12:05:19;100073.38;;;26.12;51.21
74722;BME280;63470;49.826;6.740;2023-05-07T12:07:55;100073.51;;;26.08;51.19
74722;BME280;63470;49.826;6.740;2023-05-07T12:10:21;100073.30;;;26.02;51.18
74722;BME280;63470;49.826;6.740;2023-05-07T12:12:50;100072.55;;;25.98;51.16
74722;BME280;63470;49.826;6.740;2023-05-07T12:15:24;100071.27;;;26.00;51.01
74722;BME280;63470;49.826;6.740;2023-05-07T12:17:53;100071.27;;;26.02;50.98
74722;BME280;63470;49.826;6.740;2023-05-07T12:20:22;100075.23;;;26.11;50.89
74722;BME280;63470;49.826;6.740;2023-05-07T12:22:53;100075.09;;;26.37;50.62
74722;BME280;63470;49.826;6.740;2023-05-07T12:25:23;100074.48;;;26.85;49.97
74722;BME280;63470;49.826;6.740;2023-05-07T12:27:54;100076.07;;;27.17;49.61
74722;BME280;63470;49.826;6.740;2023-05-07T12:30:24;100080.89;;;27.58;49.23
74722;BME280;63470;49.826;6.740;2023-05-07T12:32:55;100073.33;;;28.25;48.58
74722;BME280;63470;49.826;6.740;2023-05-07T12:35:29;100071.53;;;29.02;47.75
74722;BME280;63470;49.826;6.740;2023-05-07T12:37:57;100072.98;;;29.31;47.60
74722;BME280;63470;49.826;6.740;2023-05-07T12:40:40;100073.77;;;29.15;48.00
74722;BME280;63470;49.826;6.740;2023-05-07T12:42:58;100077.09;;;28.89;48.50
74722;BME280;63470;49.826;6.740;2023-05-07T12:45:27;100075.12;;;28.62;49.04
74722;BME280;63470;49.826;6.740;2023-05-07T12:48:01;100078.05;;;28.41;49.45
74722;BME280;63470;49.826;6.740;2023-05-07T12:50:31;100076.05;;;28.26;49.67
74722;BME280;63470;49.826;6.740;2023-05-07T12:52:59;100073.06;;;27.95;50.01
74722;BME280;63470;49.826;6.740;2023-05-07T12:55:29;100075.20;;;27.57;50.60
74722;BME280;63470;49.826;6.740;2023-05-07T12:58:01;100074.63;;;27.29;51.00
74722;BME280;63470;49.826;6.740;2023-05-07T13:00:38;100072.53;;;27.11;51.10
74722;BME280;63470;49.826;6.740;2023-05-07T13:03:00;100073.72;;;26.92;51.18
74722;BME280;63470;49.826;6.740;2023-05-07T13:05:31;100074.84;;;26.73;51.33
74722;BME280;63470;49.826;6.740;2023-05-07T13:08:01;100073.05;;;26.53;51.40
74722;BME280;63470;49.826;6.740;2023-05-07T13:10:35;100072.59;;;26.26;51.66
74722;BME280;63470;49.826;6.740;2023-05-07T13:13:02;100079.36;;;26.01;51.87
74722;BME280;63470;49.826;6.740;2023-05-07T13:15:33;100079.64;;;25.84;51.92
74722;BME280;63470;49.826;6.740;2023-05-07T13:18:03;100080.81;;;25.65;52.03
74722;BME280;63470;49.826;6.740;2023-05-07T13:20:34;100082.06;;;25.50;52.12
74722;BME280;63470;49.826;6.740;2023-05-07T13:23:05;100080.16;;;25.36;52.14
74722;BME280;63470;49.826;6.740;2023-05-07T13:25:35;100080.09;;;25.28;52.15
74722;BME280;63470;49.826;6.740;2023-05-07T13:28:05;100080.34;;;25.26;52.09
74722;BME280;63470;49.826;6.740;2023-05-07T13:30:36;100080.45;;;25.26;51.90
74722;BME280;63470;49.826;6.740;2023-05-07T13:33:07;100085.59;;;25.19;51.96
74722;BME280;63470;49.826;6.740;2023-05-07T13:35:37;100082.11;;;25.12;51.86
74722;BME280;63470;49.826;6.740;2023-05-07T13:38:08;100078.82;;;25.02;51.86
74722;BME280;63470;49.826;6.740;2023-05-07T13:40:39;100082.34;;;24.91;51.88
74722;BME280;63470;49.826;6.740;2023-05-07T13:43:09;100085.89;;;24.86;51.83
74722;BME280;63470;49.826;6.740;2023-05-07T13:45:40;100083.69;;;24.84;51.83
74722;BME280;63470;49.826;6.740;2023-05-07T13:48:10;100080.94;;;24.93;51.64
74722;BME280;63470;49.826;6.740;2023-05-07T13:50:41;100078.45;;;25.02;51.45
74722;BME280;63470;49.826;6.740;2023-05-07T13:53:11;100078.78;;;25.14;51.29
74722;BME280;63470;49.826;6.740;2023-05-07T13:55:42;100078.16;;;25.28;51.05